Time;durP1;ratioP1;P1;durP2;ratioP2;P2;SDS_P1;SDS_P2;PMS_P1;PMS_P2;Temp;Humidity;BMP_temperature;BMP_pressure;BME280_temperature;BME280_humidity;BME280_pressure;Samples;Min_cycle;Max_cycle;Signal;HPM_P1;HPM_P2
2024/03/22 00:00:33;;;;;;;53.57;29.77;;;;;;;3.40;95.47;100917.17;124024;1099;104190;-80
2024/03/22 00:03:25;;;;;;;56.00;31.23;;;;;;;3.38;95.05;100913.55;124026;1099;104344;-80
2024/03/22 00:05:57;;;;;;;49.93;28.30;;;;;;;3.35;95.36;100913.33;124108;1099;104351;-79
2024/03/22 00:08:29;;;;;;;52.73;29.30;;;;;;;3.31;95.65;100909.62;124073;1099;104267;-80
2024/03/22 00:11:00;;;;;;;51.50;29.30;;;;;;;3.27;95.12;100911.89;124045;1099;104360;-80
2024/03/22 00:13:35;;;;;;;49.83;27.20;;;;;;;3.24;95.21;100907.38;124011;1099;104316;-79
2024/03/22 00:16:08;;;;;;;50.00;27.33;;;;;;;3.22;96.38;100912.45;124096;1099;104287;-79
2024/03/22 00:18:40;;;;;;;49.33;28.17;;;;;;;3.19;95.89;100904.45;124165;1098;104241;-80
2024/03/22 00:21:11;;;;;;;46.50;26.27;;;;;;;3.17;96.28;100913.82;124050;1099;104348;-79
2024/03/22 00:23:42;;;;;;;50.27;28.93;;;;;;;3.18;96.19;100905.27;123949;1099;104322;-80
2024/03/22 00:26:14;;;;;;;50.90;28.03;;;;;;;3.17;96.71;100907.75;123801;1099;104402;-80
2024/03/22 00:28:45;;;;;;;49.40;28.43;;;;;;;3.17;96.59;100912.93;124105;1099;104348;-79
2024/03/22 00:31:16;;;;;;;54.83;31.70;;;;;;;3.17;96.31;100913.82;124140;1099;104319;-79
2024/03/22 00:33:48;;;;;;;56.03;32.37;;;;;;;3.17;95.83;100912.93;124022;1099;104750;-80
2024/03/22 00:36:19;;;;;;;61.65;34.20;;;;;;;3.15;96.32;100907.63;124057;1098;104798;-81
2024/03/22 00:38:50;;;;;;;57.47;33.53;;;;;;;3.14;96.81;100903.23;124252;1099;104226;-80
2024/03/22 00:41:22;;;;;;;57.43;32.30;;;;;;;3.13;96.49;100898.86;124043;1099;104300;-80
2024/03/22 00:43:53;;;;;;;53.70;31.20;;;;;;;3.13;96.89;100901.45;124034;1099;104175;-79
2024/03/22 00:46:24;;;;;;;52.73;30.53;;;;;;;3.14;96.84;100900.63;124123;1099;104284;-80
2024/03/22 00:48:56;;;;;;;59.37;34.53;;;;;;;3.14;96.50;100891.97;124025;1099;104314;-79
2024/03/22 00:51:28;;;;;;;54.47;31.70;;;;;;;3.14;97.47;100891.97;123896;1099;104337;-80
2024/03/22 00:53:59;;;;;;;51.03;28.43;;;;;;;3.13;96.84;100891.08;124009;1099;104444;-79
2024/03/22 00:56:30;;;;;;;45.67;26.20;;;;;;;3.12;97.62;100891.85;123990;1099;104323;-79
2024/03/22 00:59:02;;;;;;;47.25;27.15;;;;;;;3.09;97.44;100889.04;123988;1099;104405;-80
2024/03/22 01:01:33;;;;;;;45.60;25.60;;;;;;;3.07;96.80;100888.04;124046;1099;104268;-80
2024/03/22 01:04:05;;;;;;;46.07;24.33;;;;;;;3.05;97.07;100887.01;124113;1099;104328;-79
2024/03/22 01:06:36;;;;;;;41.40;24.03;;;;;;;3.03;97.75;100883.41;123949;1099;104430;-82
2024/03/22 01:09:08;;;;;;;44.63;24.30;;;;;;;3.00;97.33;100883.19;124115;1099;104245;-80
2024/03/22 01:11:40;;;;;;;41.23;23.30;;;;;;;2.98;97.82;100877.00;124059;1099;104275;-80
2024/03/22 01:14:11;;;;;;;41.40;23.73;;;;;;;2.95;97.50;100872.48;124002;1098;104348;-81
2024/03/22 01:16:42;;;;;;;41.25;23.80;;;;;;;2.95;97.57;100881.97;124021;1099;117959;-79
2024/03/22 01:19:14;;;;;;;44.43;23.47;;;;;;;2.94;97.77;100877.56;124129;1098;104315;-81
2024/03/22 01:21:45;;;;;;;40.07;23.60;;;;;;;2.93;97.53;100876.67;124065;1099;104274;-80
2024/03/22 01:24:16;;;;;;;42.17;24.23;;;;;;;2.91;97.18;100874.75;124105;1098;104269;-80
2024/03/22 01:26:48;;;;;;;46.00;24.73;;;;;;;2.90;97.50;100878.13;123867;1099;104342;-80
2024/03/22 01:29:19;;;;;;;44.50;25.17;;;;;;;2.89;97.37;100874.64;124136;1099;104306;-80
2024/03/22 01:31:50;;;;;;;46.35;25.40;;;;;;;2.87;97.42;100882.30;124133;1099;104270;-80
2024/03/22 01:34:22;;;;;;;50.47;26.10;;;;;;;2.85;97.77;100872.60;123843;1099;104303;-80
2024/03/22 01:36:54;;;;;;;42.93;25.13;;;;;;;2.84;98.40;100871.71;123992;1099;104674;-80
2024/03/22 01:39:25;;;;;;;48.60;26.50;;;;;;;2.84;98.06;100866.53;124101;1099;104264;-80
2024/03/22 01:41:56;;;;;;;46.70;26.10;;;;;;;2.84;98.44;100865.64;123939;1099;104389;-79
2024/03/22 01:44:32;;;;;;;44.33;24.67;;;;;;;2.84;98.64;100869.12;123966;1099;104383;-79
2024/03/22 01:47:04;;;;;;;44.77;25.60;;;;;;;2.84;98.00;100871.71;124110;1099;104255;-80
2024/03/22 01:49:36;;;;;;;45.95;25.45;;;;;;;2.84;98.47;100865.64;123779;1099;104296;-80
2024/03/22 01:52:08;;;;;;;46.00;26.27;;;;;;;2.84;98.72;100863.94;124149;1099;104223;-80
2024/03/22 01:54:40;;;;;;;43.13;24.50;;;;;;;2.83;98.29;100872.48;124094;1099;104313;-80
2024/03/22 01:57:11;;;;;;;45.83;24.67;;;;;;;2.79;98.24;100867.90;123985;1098;104505;-80
2024/03/22 01:59:43;;;;;;;44.37;24.17;;;;;;;2.77;98.41;100869.45;124025;1099;104242;-80
2024/03/22 02:02:14;;;;;;;52.87;26.07;;;;;;;2.75;98.17;100873.63;124043;1099;104304;-81
2024/03/22 02:04:46;;;;;;;49.57;26.03;;;;;;;2.73;98.54;100871.70;124100;1099;104242;-80
2024/03/22 02:07:17;;;;;;;46.73;26.40;;;;;;;2.71;98.89;100866.41;123770;1099;104329;-80
2024/03/22 02:09:49;;;;;;;45.57;25.27;;;;;;;2.70;98.84;100864.63;123957;1099;104297;-80
2024/03/22 02:12:21;;;;;;;45.90;25.93;;;;;;;2.70;99.49;100862.05;124101;1099;104245;-80
2024/03/22 02:14:53;;;;;;;49.03;26.07;;;;;;;2.70;99.00;100868.11;124067;1099;104270;-80
2024/03/22 02:17:24;;;;;;;42.77;23.27;;;;;;;2.70;99.05;100868.11;123940;1099;104370;-81
2024/03/22 02:19:55;;;;;;;44.77;24.57;;;;;;;2.70;99.51;100873.30;124162;1099;104315;-80
2024/03/22 02:22:27;;;;;;;39.23;22.27;;;;;;;2.67;98.81;100878.25;123997;1099;104258;-80
2024/03/22 02:24:58;;;;;;;42.67;23.40;;;;;;;2.66;99.67;100871.26;124108;1099;104251;-80
2024/03/22 02:27:29;;;;;;;43.17;23.90;;;;;;;2.65;98.90;100872.07;124093;1099;104684;-80
2024/03/22 02:30:01;;;;;;;44.27;24.27;;;;;;;2.65;99.39;100872.07;123874;1099;104229;-80
2024/03/22 02:32:33;;;;;;;47.50;26.35;;;;;;;2.65;99.26;100877.25;124019;1099;104386;-80
2024/03/22 02:35:04;;;;;;;45.07;25.77;;;;;;;2.63;99.08;100872.73;123930;1099;104337;-81
2024/03/22 02:37:36;;;;;;;53.73;28.57;;;;;;;2.63;98.94;100880.51;124109;1099;104242;-80
2024/03/22 02:40:09;;;;;;;49.23;25.97;;;;;;;2.62;99.62;100879.62;124030;1099;104165;-80
2024/03/22 02:42:40;;;;;;;50.20;26.07;;;;;;;2.60;99.63;100883.80;124028;1099;104313;-79
2024/03/22 02:45:13;;;;;;;52.00;25.67;;;;;;;2.59;99.47;100878.50;124119;1098;104166;-78
2024/03/22 02:47:44;;;;;;;61.97;27.47;;;;;;;2.59;99.54;100886.27;124058;1099;104224;-78
2024/03/22 02:50:15;;;;;;;55.27;28.63;;;;;;;2.56;99.58;100888.64;124123;1098;104284;-80
2024/03/22 02:52:47;;;;;;;51.70;28.20;;;;;;;2.57;99.31;100893.01;124026;1099;104223;-79
2024/03/22 02:55:18;;;;;;;53.45;28.70;;;;;;;2.57;99.87;100887.83;124083;1099;104319;-79
2024/03/22 02:57:51;;;;;;;58.70;29.77;;;;;;;2.58;99.42;100887.05;124197;1098;104331;-80
2024/03/22 03:00:23;;;;;;;52.83;28.07;;;;;;;2.62;99.66;100889.09;124070;1099;104309;-79
2024/03/22 03:02:54;;;;;;;50.53;27.20;;;;;;;2.62;100.00;100889.09;124010;1099;104284;-79
2024/03/22 03:05:26;;;;;;;53.30;27.80;;;;;;;2.65;99.68;100891.88;124040;1099;104344;-79
2024/03/22 03:07:57;;;;;;;55.00;27.30;;;;;;;2.68;100.00;100884.33;123829;1099;104300;-79
2024/03/22 03:10:29;;;;;;;57.23;28.33;;;;;;;2.69;100.00;100880.95;123751;1099;104392;-79
2024/03/22 03:13:00;;;;;;;51.80;26.77;;;;;;;2.70;100.00;100882.77;124231;1099;104309;-79
2024/03/22 03:15:31;;;;;;;55.30;25.80;;;;;;;2.68;99.87;100885.25;123993;1099;104408;-81
2024/03/22 03:18:03;;;;;;;55.87;27.03;;;;;;;2.67;100.00;100877.36;124309;1099;104307;-81
2024/03/22 03:20:34;;;;;;;56.10;27.40;;;;;;;2.69;100.00;100883.55;124342;1099;104242;-79
2024/03/22 03:23:06;;;;;;;55.90;28.95;;;;;;;2.73;100.00;100885.59;124092;1099;104328;-79
2024/03/22 03:25:37;;;;;;;55.60;28.03;;;;;;;2.78;100.00;100881.63;123921;1099;104332;-80
2024/03/22 03:28:09;;;;;;;53.17;28.47;;;;;;;2.83;100.00;100881.97;124108;1099;104319;-79
2024/03/22 03:30:40;;;;;;;51.43;26.03;;;;;;;2.86;100.00;100885.67;124110;1099;104657;-79
2024/03/22 03:33:11;;;;;;;51.73;27.10;;;;;;;2.92;100.00;100885.23;123991;1099;104245;-80
2024/03/22 03:35:46;;;;;;;55.60;28.33;;;;;;;2.97;100.00;100882.97;123959;1099;104348;-80
2024/03/22 03:38:17;;;;;;;53.63;27.70;;;;;;;3.00;100.00;100883.19;124022;1099;104793;-79
2024/03/22 03:40:48;;;;;;;51.20;25.47;;;;;;;3.02;100.00;100884.19;124153;1099;104251;-79
2024/03/22 03:43:20;;;;;;;45.13;24.97;;;;;;;3.04;100.00;100885.22;123876;1099;104364;-79
2024/03/22 03:45:51;;;;;;;39.97;22.00;;;;;;;3.05;100.00;100889.59;124027;1099;104217;-79
2024/03/22 03:48:22;;;;;;;41.60;22.90;;;;;;;3.08;100.00;100884.63;124012;1099;104338;-78
2024/03/22 03:51:02;;;;;;;46.67;22.73;;;;;;;3.10;100.00;100885.67;123957;1099;104271;-79
2024/03/22 03:53:33;;;;;;;41.57;22.67;;;;;;;3.15;100.00;100891.19;124141;1099;104274;-79
2024/03/22 03:56:05;;;;;;;44.67;22.93;;;;;;;3.15;100.00;100884.30;123955;1099;104830;-79
2024/03/22 03:58:36;;;;;;;41.80;23.90;;;;;;;3.15;100.00;100884.30;123992;1099;104246;-79
2024/03/22 04:01:10;;;;;;;43.93;24.97;;;;;;;3.16;100.00;100888.67;124057;1099;104399;-79
2024/03/22 04:03:41;;;;;;;44.35;24.15;;;;;;;3.18;100.00;100881.00;124230;1099;104165;-80
2024/03/22 04:06:13;;;;;;;42.43;23.47;;;;;;;3.21;100.00;100887.33;124021;1099;104360;-79
2024/03/22 04:08:45;;;;;;;43.00;23.77;;;;;;;3.21;100.00;100886.41;123893;1099;104347;-78
2024/03/22 04:11:16;;;;;;;44.90;23.97;;;;;;;3.17;100.00;100881.81;124054;1099;104271;-80
2024/03/22 04:13:48;;;;;;;41.57;23.47;;;;;;;3.18;100.00;100888.78;124007;1099;104268;-79
2024/03/22 04:16:19;;;;;;;39.83;21.07;;;;;;;3.17;100.00;100890.48;124063;1099;104722;-79
2024/03/22 04:18:51;;;;;;;40.80;21.25;;;;;;;3.17;100.00;100884.41;123769;1098;104255;-79
2024/03/22 04:21:23;;;;;;;42.27;22.77;;;;;;;3.13;100.00;100893.67;123959;1099;104233;-79
2024/03/22 04:23:54;;;;;;;39.97;22.33;;;;;;;3.08;100.00;100889.82;124053;1098;104257;-79
2024/03/22 04:26:26;;;;;;;39.80;22.55;;;;;;;3.05;100.00;100893.11;124061;1099;104375;-79
2024/03/22 04:28:57;;;;;;;43.77;24.27;;;;;;;3.05;100.00;100894.78;123959;1099;104769;-79
2024/03/22 04:31:28;;;;;;;41.77;22.00;;;;;;;3.05;100.00;100892.19;123979;1099;104275;-79
2024/03/22 04:34:00;;;;;;;40.45;20.95;;;;;;;3.06;100.00;100888.82;124046;1099;104201;-79
2024/03/22 04:36:31;;;;;;;41.27;22.37;;;;;;;3.09;100.00;100899.41;124137;1099;104335;-80
2024/03/22 04:39:03;;;;;;;39.77;21.00;;;;;;;3.15;100.00;100906.75;124020;1099;104742;-80
2024/03/22 04:41:35;;;;;;;41.40;20.90;;;;;;;3.18;100.00;100900.08;123963;1099;104354;-79
2024/03/22 04:44:06;;;;;;;43.33;21.47;;;;;;;3.19;100.00;100909.63;124006;1099;104268;-79
2024/03/22 04:46:38;;;;;;;39.90;21.00;;;;;;;3.20;100.00;100910.56;124072;1099;104242;-79
2024/03/22 04:49:09;;;;;;;41.53;22.13;;;;;;;3.23;100.00;100909.08;124151;1098;104267;-79
2024/03/22 04:51:40;;;;;;;38.37;21.33;;;;;;;3.25;100.00;100898.81;124113;1099;104367;-80
2024/03/22 04:54:12;;;;;;;41.47;22.43;;;;;;;3.29;100.00;100900.84;124071;1099;104727;-81
2024/03/22 04:56:43;;;;;;;42.93;21.40;;;;;;;3.34;100.00;100908.95;124216;1099;104235;-82
2024/03/22 04:59:14;;;;;;;38.13;20.70;;;;;;;3.37;100.00;100910.06;124046;1098;104271;-81
2024/03/22 05:01:46;;;;;;;42.87;21.67;;;;;;;3.41;100.00;100906.91;124107;1099;104172;-81
2024/03/22 05:04:17;;;;;;;38.93;21.10;;;;;;;3.43;100.00;100914.80;124140;1100;104339;-81
2024/03/22 05:06:49;;;;;;;40.77;19.90;;;;;;;3.48;100.00;100916.01;124328;1099;104248;-80
2024/03/22 05:09:20;;;;;;;41.05;20.40;;;;;;;3.54;100.00;100905.17;124198;1098;104281;-81
2024/03/22 05:11:51;;;;;;;40.00;20.33;;;;;;;3.60;100.00;100913.39;124192;1098;104345;-80
2024/03/22 05:14:23;;;;;;;41.90;20.67;;;;;;;3.66;100.00;100924.20;124181;1099;104242;-80
2024/03/22 05:16:56;;;;;;;37.90;20.00;;;;;;;3.72;100.00;100924.60;124223;1099;104169;-80
2024/03/22 05:19:27;;;;;;;40.85;21.10;;;;;;;3.76;100.00;100918.84;124113;1099;104177;-80
2024/03/22 05:22:00;;;;;;;43.50;22.50;;;;;;;3.79;100.00;100923.36;124234;1099;104316;-79
2024/03/22 05:24:31;;;;;;;39.83;20.07;;;;;;;3.79;100.00;100918.16;124240;1099;104214;-80
2024/03/22 05:27:02;;;;;;;40.07;20.50;;;;;;;3.83;100.00;100927.05;124469;1099;104350;-80
2024/03/22 05:29:34;;;;;;;41.50;20.65;;;;;;;3.83;100.00;100924.46;124297;1099;104328;-79
2024/03/22 05:32:06;;;;;;;38.15;21.25;;;;;;;3.86;100.00;100916.88;123824;1099;104396;-80
2024/03/22 05:34:37;;;;;;;42.07;20.70;;;;;;;3.83;100.00;100914.08;124263;1099;104245;-81
2024/03/22 05:37:10;;;;;;;41.95;21.25;;;;;;;3.92;100.00;100922.50;124253;1099;104192;-80
2024/03/22 05:39:42;;;;;;;38.80;18.92;;;;;;;3.96;100.00;100924.53;124387;1098;104697;-79
2024/03/22 05:42:13;;;;;;;41.50;20.60;;;;;;;4.01;100.00;100919.65;124039;1099;104239;-78
2024/03/22 05:44:45;;;;;;;43.20;20.25;;;;;;;4.09;100.00;100923.66;123677;1099;104248;-78
2024/03/22 05:47:18;;;;;;;41.97;20.07;;;;;;;4.17;100.00;100927.67;123934;1099;104268;-79
2024/03/22 05:49:51;;;;;;;42.23;19.07;;;;;;;4.24;100.00;100928.98;124173;1099;104267;-80
2024/03/22 05:52:23;;;;;;;42.57;19.83;;;;;;;4.38;100.00;100915.25;124035;1099;104270;-75
2024/03/22 05:54:55;;;;;;;40.93;19.83;;;;;;;4.58;100.00;100926.98;123923;1099;104267;-76
2024/03/22 05:57:26;;;;;;;44.60;19.77;;;;;;;4.80;100.00;100929.30;124161;1099;104339;-75
2024/03/22 05:59:58;;;;;;;41.43;19.90;;;;;;;4.95;100.00;100920.68;123868;1099;104246;-75
2024/03/22 06:02:29;;;;;;;45.53;20.10;;;;;;;5.05;100.00;100925.69;123795;1099;110790;-75
2024/03/22 06:05:01;;;;;;;44.27;19.93;;;;;;;5.13;100.00;100926.19;123972;1099;104273;-74
2024/03/22 06:07:41;;;;;;;40.33;19.33;;;;;;;5.20;100.00;100925.76;124238;1099;104194;-76
2024/03/22 06:10:13;;;;;;;41.83;19.30;;;;;;;5.27;100.00;100927.07;123958;1099;104370;-75
2024/03/22 06:12:48;;;;;;;42.07;20.43;;;;;;;5.34;100.00;100924.92;124423;1099;104344;-75
2024/03/22 06:15:21;;;;;;;42.03;20.07;;;;;;;5.44;100.00;100928.11;123787;1099;104281;-75
2024/03/22 06:17:53;;;;;;;42.87;19.17;;;;;;;5.56;100.00;100932.41;124108;1099;104344;-75
2024/03/22 06:20:24;;;;;;;45.00;18.83;;;;;;;5.67;100.00;100927.88;124094;1099;104268;-75
2024/03/22 06:22:55;;;;;;;45.37;20.70;;;;;;;5.79;100.00;100929.43;124341;1098;104364;-75
2024/03/22 06:25:27;;;;;;;46.07;19.93;;;;;;;5.90;100.00;100936.19;124105;1099;104277;-74
2024/03/22 06:27:58;;;;;;;42.40;18.67;;;;;;;6.01;100.00;100932.56;124049;1099;104302;-75
2024/03/22 06:30:30;;;;;;;44.40;19.97;;;;;;;6.11;100.00;100941.86;124347;1098;104344;-74
2024/03/22 06:33:01;;;;;;;44.63;21.43;;;;;;;6.21;100.00;100945.91;124035;1099;118391;-75
2024/03/22 06:35:33;;;;;;;41.10;19.13;;;;;;;6.30;100.00;100936.93;124459;1099;104274;-76
2024/03/22 06:38:04;;;;;;;37.53;19.20;;;;;;;6.34;100.00;100943.22;124127;1099;104227;-74
2024/03/22 06:40:36;;;;;;;40.30;19.17;;;;;;;6.36;100.00;100940.70;124427;1099;104241;-77
2024/03/22 06:43:12;;;;;;;40.13;19.90;;;;;;;6.40;100.00;100938.37;124793;1099;104166;-77
2024/03/22 06:45:44;;;;;;;42.93;19.10;;;;;;;6.47;100.00;100935.33;124685;1099;104242;-78
2024/03/22 06:48:16;;;;;;;38.90;19.17;;;;;;;6.55;100.00;100937.50;124670;1099;104277;-77
2024/03/22 06:51:07;;;;;;;45.53;21.27;;;;;;;6.71;100.00;100937.57;125304;1099;104227;-76
2024/03/22 06:53:41;;;;;;;38.17;19.02;;;;;;;6.86;100.00;100937.57;125249;1099;110823;-76
2024/03/22 06:56:12;;;;;;;43.73;20.60;;;;;;;6.96;100.00;100934.66;124934;1099;104248;-77
2024/03/22 06:58:45;;;;;;;41.05;20.45;;;;;;;7.01;100.00;100940.14;124446;1099;104259;-78
2024/03/22 07:01:17;;;;;;;39.70;19.13;;;;;;;7.08;100.00;100942.30;124919;1098;104348;-78
2024/03/22 07:03:48;;;;;;;42.20;21.13;;;;;;;7.17;100.00;100937.60;124652;1099;102949;-77
2024/03/22 07:06:20;;;;;;;40.47;20.50;;;;;;;7.28;100.00;100934.70;125225;1099;104163;-77
2024/03/22 07:08:52;;;;;;;38.13;19.00;;;;;;;7.38;100.00;100937.88;125103;1099;102271;-77
2024/03/22 07:11:28;;;;;;;37.93;19.50;;;;;;;7.49;100.00;100934.98;125247;1099;104342;-78
2024/03/22 07:14:00;;;;;;;39.30;19.73;;;;;;;7.63;100.00;100930.52;126790;1099;107480;-78
2024/03/22 07:16:31;;;;;;;37.07;18.67;;;;;;;7.77;100.00;100932.15;126890;1097;102198;-79
2024/03/22 07:19:07;;;;;;;35.03;18.10;;;;;;;7.95;100.00;100927.02;125427;1098;101981;-78
2024/03/22 07:21:39;;;;;;;40.00;19.60;;;;;;;8.02;100.00;100926.51;125001;1099;103782;-77
2024/03/22 07:24:11;;;;;;;36.30;19.70;;;;;;;8.06;100.00;100925.87;124939;1099;104351;-78
2024/03/22 07:26:43;;;;;;;36.47;18.43;;;;;;;8.20;100.00;100918.75;124408;1099;104264;-77
2024/03/22 07:29:15;;;;;;;36.00;19.03;;;;;;;8.37;100.00;100921.34;124515;1099;104223;-78
2024/03/22 07:31:55;;;;;;;34.20;18.90;;;;;;;8.52;100.00;100919.52;124801;1099;104168;-76
2024/03/22 07:34:28;;;;;;;31.00;16.50;;;;;;;8.56;100.00;100917.98;124636;1099;104223;-77
2024/03/22 07:37:00;;;;;;;34.30;18.70;;;;;;;8.64;100.00;100917.52;124688;1098;104226;-77
2024/03/22 07:39:31;;;;;;;34.10;18.10;;;;;;;8.76;100.00;100911.13;124810;1099;104364;-77
2024/03/22 07:42:02;;;;;;;35.63;18.47;;;;;;;8.87;100.00;100912.55;124870;1099;104219;-77
2024/03/22 07:44:34;;;;;;;37.97;18.27;;;;;;;9.01;100.00;100918.45;124821;1099;104307;-77
2024/03/22 07:47:06;;;;;;;31.77;17.23;;;;;;;9.11;100.00;100914.55;124784;1099;102252;-77
2024/03/22 07:49:37;;;;;;;29.53;15.73;;;;;;;9.15;100.00;100908.66;124738;1099;104217;-77
2024/03/22 07:52:09;;;;;;;36.35;18.20;;;;;;;9.18;100.00;100908.80;124935;1099;104156;-77
2024/03/22 07:54:40;;;;;;;30.57;15.73;;;;;;;9.26;100.00;100909.17;125008;1099;104264;-76
2024/03/22 07:57:12;;;;;;;35.90;16.87;;;;;;;9.26;100.00;100907.44;124411;1099;104217;-76
2024/03/22 07:59:44;;;;;;;33.73;18.03;;;;;;;9.27;100.00;100905.70;124812;1099;104344;-77
2024/03/22 08:02:15;;;;;;;36.20;18.57;;;;;;;9.33;100.00;100901.67;124617;1099;104313;-76
2024/03/22 08:04:47;;;;;;;30.47;16.57;;;;;;;9.26;100.00;100896.96;124513;1098;104713;-75
2024/03/22 08:07:18;;;;;;;29.00;15.57;;;;;;;9.23;100.00;100899.43;124345;1099;104233;-75
2024/03/22 08:09:50;;;;;;;28.27;15.03;;;;;;;9.23;100.00;100899.43;124394;1099;104264;-75
2024/03/22 08:12:21;;;;;;;30.83;15.83;;;;;;;9.22;100.00;100901.98;124585;1099;104322;-74
2024/03/22 08:14:53;;;;;;;29.73;14.23;;;;;;;9.23;100.00;100891.58;124905;1099;102248;-75
2024/03/22 08:17:24;;;;;;;28.30;15.10;;;;;;;9.27;100.00;100885.67;124808;1099;104840;-76
2024/03/22 08:19:56;;;;;;;28.80;13.83;;;;;;;9.32;100.00;100889.39;124679;1099;104243;-75
2024/03/22 08:22:29;;;;;;;26.50;13.97;;;;;;;9.39;100.00;100880.09;124670;1099;102466;-75
2024/03/22 08:25:02;;;;;;;25.37;12.73;;;;;;;9.43;100.00;100887.28;124508;1099;104294;-77
2024/03/22 08:27:34;;;;;;;27.63;13.97;;;;;;;9.49;100.00;100887.56;124888;1099;103464;-75
2024/03/22 08:30:12;;;;;;;33.17;15.00;;;;;;;9.64;100.00;100892.59;124348;1099;104347;-76
2024/03/22 08:32:44;;;;;;;28.00;14.63;;;;;;;9.80;100.00;100883.72;124375;1099;104329;-75
2024/03/22 08:35:16;;;;;;;28.23;15.23;;;;;;;9.90;100.00;100872.80;124415;1099;104226;-75
2024/03/22 08:37:48;;;;;;;27.10;12.77;;;;;;;9.94;100.00;100880.80;124466;1098;104297;-75
2024/03/22 08:40:20;;;;;;;26.73;12.17;;;;;;;9.93;100.00;100869.43;124449;1099;104346;-74
2024/03/22 08:42:51;;;;;;;24.93;11.87;;;;;;;9.87;100.00;100864.80;124589;1099;104274;-75
2024/03/22 08:45:23;;;;;;;25.70;12.77;;;;;;;9.86;99.51;100868.27;124577;1099;104188;-75
2024/03/22 08:47:55;;;;;;;21.43;11.17;;;;;;;9.87;98.25;100869.16;124746;1099;104354;-77
2024/03/22 08:50:28;;;;;;;28.37;13.27;;;;;;;10.00;99.43;100865.34;124595;1099;102959;-76
2024/03/22 08:53:02;;;;;;;25.23;12.80;;;;;;;10.13;98.48;100861.52;124498;1098;104274;-77
2024/03/22 08:55:34;;;;;;;26.23;12.83;;;;;;;10.30;97.69;100860.55;124620;1099;104393;-76
2024/03/22 08:58:06;;;;;;;30.40;13.70;;;;;;;10.57;99.06;100854.69;124622;1099;104166;-75
2024/03/22 09:00:38;;;;;;;29.63;14.37;;;;;;;10.90;99.30;100856.89;124668;1098;104377;-77
2024/03/22 09:03:10;;;;;;;25.57;12.90;;;;;;;11.10;97.19;100858.56;124526;1099;104303;-76
2024/03/22 09:05:45;;;;;;;29.52;13.22;;;;;;;11.19;97.54;100857.13;124418;1099;104369;-77
2024/03/22 09:08:16;;;;;;;27.00;13.43;;;;;;;11.35;98.45;100856.89;124407;1099;104238;-77
2024/03/22 09:10:47;;;;;;;24.23;11.50;;;;;;;11.46;96.48;100862.55;124355;1099;104216;-77
2024/03/22 09:13:19;;;;;;;23.63;11.70;;;;;;;11.58;97.68;100860.39;124591;1099;104243;-78
2024/03/22 09:15:57;;;;;;;31.37;12.13;;;;;;;11.71;97.62;100848.59;124410;1099;104297;-75
2024/03/22 09:18:29;;;;;;;24.33;11.97;;;;;;;11.73;96.05;100846.90;124831;1099;102809;-76
2024/03/22 09:21:00;;;;;;;27.57;12.70;;;;;;;11.77;96.01;100846.19;124207;1099;104385;-76
2024/03/22 09:23:32;;;;;;;28.00;13.10;;;;;;;11.76;95.73;100841.75;124447;1099;104172;-74
2024/03/22 09:26:05;;;;;;;25.00;12.10;;;;;;;11.75;93.08;100839.06;124251;1099;104181;-75
2024/03/22 09:28:36;;;;;;;22.97;11.13;;;;;;;11.62;88.16;100850.87;124437;1099;104754;-75
2024/03/22 09:31:11;;;;;;;25.63;11.70;;;;;;;11.57;93.46;100850.70;125094;1099;103296;-75
2024/03/22 09:33:44;;;;;;;24.00;12.33;;;;;;;11.68;94.66;100845.84;124317;1099;104370;-76
2024/03/22 09:36:18;;;;;;;24.97;12.03;;;;;;;11.65;90.49;100827.33;124646;1098;104322;-76
2024/03/22 09:38:49;;;;;;;21.93;10.97;;;;;;;11.68;90.39;100843.22;124487;1099;104180;-76
2024/03/22 09:41:25;;;;;;;24.30;11.00;;;;;;;11.57;89.68;100840.19;124564;1099;104159;-77
2024/03/22 09:44:01;;;;;;;24.87;11.40;;;;;;;11.42;89.23;100844.88;124063;1099;104153;-76
2024/03/22 09:46:34;;;;;;;27.47;12.00;;;;;;;11.44;90.91;100838.84;124236;1099;104181;-76
2024/03/22 09:49:06;;;;;;;25.27;11.97;;;;;;;11.56;91.81;100830.54;123923;1099;104283;-76
2024/03/22 09:51:40;;;;;;;23.63;11.47;;;;;;;11.61;88.06;100838.56;124292;1099;104748;-75
2024/03/22 09:54:12;;;;;;;22.33;10.77;;;;;;;11.48;88.49;100830.25;124270;1099;104169;-77
2024/03/22 09:56:47;;;;;;;21.10;10.93;;;;;;;11.60;89.55;100836.80;124314;1099;104240;-75
2024/03/22 09:59:19;;;;;;;20.27;9.67;;;;;;;11.78;89.95;100832.21;124678;1099;104508;-77
2024/03/22 10:01:54;;;;;;;23.22;10.85;;;;;;;11.84;90.27;100827.17;125009;1099;104205;-78
2024/03/22 10:04:29;;;;;;;22.22;10.55;;;;;;;11.81;89.84;100829.69;125450;1099;104197;-77
2024/03/22 10:07:02;;;;;;;22.53;10.30;;;;;;;11.81;89.83;100823.52;125240;1099;104262;-77
2024/03/22 10:09:35;;;;;;;23.90;9.80;;;;;;;11.82;89.34;100830.58;124625;1099;104195;-76
2024/03/22 10:12:07;;;;;;;19.00;8.47;;;;;;;11.88;89.14;100826.42;124771;1099;104237;-76
2024/03/22 10:14:41;;;;;;;16.45;7.60;;;;;;;11.78;87.30;100821.69;124716;1099;104305;-75
2024/03/22 10:17:16;;;;;;;15.90;8.00;;;;;;;11.79;87.79;100818.20;125163;1099;104172;-76
2024/03/22 10:19:50;;;;;;;16.67;7.90;;;;;;;11.82;88.23;100820.06;124874;1099;104166;-77
2024/03/22 10:22:27;;;;;;;16.25;8.08;;;;;;;11.88;87.76;100826.42;124889;1098;102291;-77
2024/03/22 10:25:01;;;;;;;19.13;8.30;;;;;;;11.96;87.97;100817.95;124346;1102;102685;-77
2024/03/22 10:27:35;;;;;;;16.20;7.60;;;;;;;11.98;87.44;100819.81;124966;1099;104248;-75
2024/03/22 10:30:10;;;;;;;18.10;8.37;;;;;;;12.00;87.81;100809.34;124807;1099;104168;-77
2024/03/22 10:32:44;;;;;;;15.43;7.57;;;;;;;12.04;88.72;100814.77;124819;1099;104312;-76
2024/03/22 10:35:15;;;;;;;;;;;;;;;12.01;84.15;100806.77;124642;1099;104197;-74
2024/03/22 10:37:47;;;;;;;19.50;8.73;;;;;;;12.01;87.09;100816.37;124201;1099;104316;-76
2024/03/22 10:40:20;;;;;;;19.77;9.13;;;;;;;11.97;87.87;100806.61;124848;1099;104242;-78
2024/03/22 10:42:52;;;;;;;20.83;9.20;;;;;;;11.98;87.92;100811.92;125110;1099;104127;-76
2024/03/22 10:45:27;;;;;;;20.07;8.90;;;;;;;11.90;86.50;100805.44;124995;1099;104252;-77
2024/03/22 10:48:03;;;;;;;17.63;8.10;;;;;;;11.91;86.38;100803.73;124976;1099;104197;-76
2024/03/22 10:50:39;;;;;;;19.55;8.65;;;;;;;11.86;86.20;100803.56;124490;1099;104331;-76
2024/03/22 10:53:15;;;;;;;23.00;10.60;;;;;;;11.78;86.49;100800.66;124558;1099;104351;-75
2024/03/22 10:55:49;;;;;;;19.50;9.40;;;;;;;11.74;86.42;100798.75;125013;1099;102182;-77
2024/03/22 10:58:22;;;;;;;19.65;9.05;;;;;;;11.58;83.97;100783.29;125329;1099;101841;-78
2024/03/22 11:00:57;;;;;;;18.20;8.75;;;;;;;11.62;85.33;100798.31;124937;1099;104239;-76
2024/03/22 11:03:30;;;;;;;21.63;8.90;;;;;;;11.63;84.02;100792.22;124828;1099;104166;-76
2024/03/22 11:06:03;;;;;;;22.27;9.40;;;;;;;11.66;85.42;100801.10;125058;1099;104265;-77
2024/03/22 11:08:40;;;;;;;19.53;9.30;;;;;;;11.77;85.37;100784.83;125164;1099;104235;-76
2024/03/22 11:11:18;;;;;;;19.80;9.83;;;;;;;11.94;86.23;100788.97;125202;1099;104280;-79
2024/03/22 11:13:51;;;;;;;22.07;9.73;;;;;;;12.15;86.49;100791.42;125422;1099;104217;-78
2024/03/22 11:16:23;;;;;;;19.17;8.97;;;;;;;12.21;84.81;100788.12;125294;1099;103276;-79
2024/03/22 11:18:58;;;;;;;22.20;9.00;;;;;;;12.28;85.36;100789.21;125185;1099;104347;-78